Time;durP1;ratioP1;P1;durP2;ratioP2;P2;SDS_P1;SDS_P2;PMS_P1;PMS_P2;Temp;Humidity;BMP_temperature;BMP_pressure;BME280_temperature;BME280_humidity;BME280_pressure;Samples;Min_cycle;Max_cycle;Signal;HPM_P1;HPM_P2
2024/02/23 00:02:35;;;;;;;2.53;0.50;;;;;;;;;;6182236;28;20626;-82
2024/02/23 00:05:37;;;;;;;1.87;0.70;;;;;;;;;;6180094;28;20076;-79
2024/02/23 00:08:40;;;;;;;1.98;0.30;;;;;;;;;;6166611;28;20097;-81
2024/02/23 00:11:44;;;;;;;2.67;0.40;;;;;;;;;;6178003;28;20512;-82
2024/02/23 00:14:46;;;;;;;1.13;0.30;;;;;;;;;;6180065;28;20038;-82
2024/02/23 00:17:47;;;;;;;1.67;0.30;;;;;;;;;;6181428;28;20061;-82
2024/02/23 00:20:49;;;;;;;6.30;0.82;;;;;;;;;;6160068;28;20058;-81
2024/02/23 00:23:51;;;;;;;1.08;0.45;;;;;;;;;;6196685;28;20070;-79
2024/02/23 00:26:53;;;;;;;2.92;0.30;;;;;;;;;;6173270;28;20058;-79
2024/02/23 00:29:54;;;;;;;1.15;0.40;;;;;;;;;;6175613;28;20054;-79
2024/02/23 00:32:56;;;;;;;1.13;0.73;;;;;;;;;;6188857;28;20054;-79
2024/02/23 00:35:57;;;;;;;1.38;0.32;;;;;;;;;;6182588;28;20065;-82
2024/02/23 00:38:59;;;;;;;1.98;0.40;;;;;;;;;;6183852;28;20531;-80
2024/02/23 00:42:01;;;;;;;2.65;0.30;;;;;;;;;;6173756;28;20051;-82
2024/02/23 00:45:03;;;;;;;2.65;0.43;;;;;;;;;;6181939;28;20061;-80
2024/02/23 00:48:05;;;;;;;1.55;0.30;;;;;;;;;;6183943;28;20533;-79
2024/02/23 00:51:08;;;;;;;1.45;0.35;;;;;;;;;;6176478;28;20058;-82
2024/02/23 00:54:10;;;;;;;1.00;0.28;;;;;;;;;;6179908;28;20050;-82
2024/02/23 00:57:12;;;;;;;0.73;0.20;;;;;;;;;;6177319;28;20060;-80
2024/02/23 01:00:14;;;;;;;1.35;0.35;;;;;;;;;;6181498;28;20042;-79
2024/02/23 01:03:16;;;;;;;1.23;0.30;;;;;;;;;;6184472;28;20054;-79
2024/02/23 01:06:17;;;;;;;0.35;0.20;;;;;;;;;;6180545;28;20039;-80
2024/02/23 01:09:20;;;;;;;0.55;0.28;;;;;;;;;;6166083;28;20125;-80
2024/02/23 01:12:22;;;;;;;3.17;0.68;;;;;;;;;;6166158;28;20050;-82
2024/02/23 01:15:24;;;;;;;0.73;0.50;;;;;;;;;;6186106;28;20049;-79
2024/02/23 01:18:26;;;;;;;0.63;0.40;;;;;;;;;;6180376;28;20054;-78
2024/02/23 01:21:27;;;;;;;0.32;0.28;;;;;;;;;;6176305;28;20047;-80
2024/02/23 01:24:29;;;;;;;0.55;0.30;;;;;;;;;;6178109;28;20038;-82
2024/02/23 01:27:31;;;;;;;3.83;0.50;;;;;;;;;;6174613;28;20413;-82
2024/02/23 01:30:32;;;;;;;1.77;0.20;;;;;;;;;;6181587;28;20050;-81
2024/02/23 01:33:35;;;;;;;1.88;0.32;;;;;;;;;;6180652;28;20073;-82
2024/02/23 01:36:38;;;;;;;0.52;0.10;;;;;;;;;;6177590;28;20051;-79
2024/02/23 01:39:40;;;;;;;0.25;0.20;;;;;;;;;;6207661;28;20049;-80
2024/02/23 01:42:42;;;;;;;0.20;0.20;;;;;;;;;;6189280;28;20074;-81
2024/02/23 01:45:43;;;;;;;0.28;0.22;;;;;;;;;;6166944;28;20054;-81
2024/02/23 01:48:45;;;;;;;0.13;0.13;;;;;;;;;;6187054;28;20058;-81
2024/02/23 01:51:49;;;;;;;0.70;0.13;;;;;;;;;;6191241;28;20100;-78
2024/02/23 01:54:52;;;;;;;0.45;0.20;;;;;;;;;;6158191;28;20059;-82
2024/02/23 01:57:54;;;;;;;0.32;0.20;;;;;;;;;;6164225;28;20603;-83
2024/02/23 02:00:56;;;;;;;0.10;0.10;;;;;;;;;;6179833;28;20061;-80
2024/02/23 02:03:58;;;;;;;0.20;0.20;;;;;;;;;;6182328;28;20128;-82
2024/02/23 02:07:01;;;;;;;0.13;0.13;;;;;;;;;;6182108;28;20435;-82
2024/02/23 02:10:06;;;;;;;1.40;0.28;;;;;;;;;;6175802;28;20062;-81
2024/02/23 02:13:08;;;;;;;0.10;0.10;;;;;;;;;;6179980;28;20054;-82
2024/02/23 02:16:11;;;;;;;2.05;0.32;;;;;;;;;;6186946;28;20142;-82
2024/02/23 02:19:12;;;;;;;0.20;0.20;;;;;;;;;;6187897;28;20051;-83
2024/02/23 02:22:14;;;;;;;0.25;0.20;;;;;;;;;;6183840;28;20054;-82
2024/02/23 02:25:16;;;;;;;0.57;0.20;;;;;;;;;;6182724;28;20139;-82
2024/02/23 02:28:18;;;;;;;0.22;0.17;;;;;;;;;;6166373;28;20424;-82
2024/02/23 02:31:19;;;;;;;1.65;0.30;;;;;;;;;;6184271;28;20481;-80
2024/02/23 02:34:21;;;;;;;0.40;0.20;;;;;;;;;;6188230;28;20163;-83
2024/02/23 02:37:22;;;;;;;0.13;0.13;;;;;;;;;;6199713;28;20053;-82
2024/02/23 02:40:24;;;;;;;1.05;0.50;;;;;;;;;;6183620;28;20109;-82
2024/02/23 02:43:26;;;;;;;0.20;0.20;;;;;;;;;;6185609;28;20433;-82
2024/02/23 02:46:28;;;;;;;1.67;0.20;;;;;;;;;;6181727;28;20057;-83
2024/02/23 02:49:30;;;;;;;5.40;0.38;;;;;;;;;;6196260;28;20061;-81
2024/02/23 02:52:32;;;;;;;1.17;0.20;;;;;;;;;;6174197;28;20472;-82
2024/02/23 02:55:33;;;;;;;0.52;0.30;;;;;;;;;;6182942;28;20409;-82
2024/02/23 02:58:35;;;;;;;0.60;0.28;;;;;;;;;;6179162;28;20111;-81
2024/02/23 03:01:37;;;;;;;1.33;0.22;;;;;;;;;;6181912;28;20110;-78
2024/02/23 03:04:39;;;;;;;0.35;0.20;;;;;;;;;;6182091;28;20053;-80
2024/02/23 03:07:40;;;;;;;1.23;0.20;;;;;;;;;;6184203;28;20050;-83
2024/02/23 03:10:42;;;;;;;1.73;0.20;;;;;;;;;;6180134;28;20045;-82
2024/02/23 03:13:44;;;;;;;1.60;0.38;;;;;;;;;;6181118;28;20417;-80
2024/02/23 03:16:47;;;;;;;0.28;0.20;;;;;;;;;;6189633;28;20114;-80
2024/02/23 03:19:52;;;;;;;0.65;0.20;;;;;;;;;;6186285;28;20066;-79
2024/02/23 03:22:54;;;;;;;2.22;0.22;;;;;;;;;;6183269;28;20130;-81
2024/02/23 03:25:56;;;;;;;2.15;0.20;;;;;;;;;;6196218;28;20165;-80
2024/02/23 03:28:58;;;;;;;0.30;0.30;;;;;;;;;;6187464;28;20046;-81
2024/02/23 03:32:01;;;;;;;0.43;0.30;;;;;;;;;;6187262;28;20106;-80
2024/02/23 03:35:04;;;;;;;0.30;0.30;;;;;;;;;;6185809;28;20050;-81
2024/02/23 03:38:06;;;;;;;;;;;;;;;;;;6184479;28;20042;-80
2024/02/23 03:41:08;;;;;;;2.05;0.40;;;;;;;;;;6184433;28;20327;-83
2024/02/23 03:44:09;;;;;;;1.15;0.40;;;;;;;;;;6179642;28;20051;-80
2024/02/23 03:47:12;;;;;;;0.47;0.22;;;;;;;;;;6209569;28;20070;-78
2024/02/23 03:50:13;;;;;;;2.25;0.43;;;;;;;;;;6191558;28;20039;-79
2024/02/23 03:53:16;;;;;;;0.20;0.20;;;;;;;;;;6159772;28;20043;-81
2024/02/23 03:56:18;;;;;;;2.33;0.43;;;;;;;;;;6175607;28;20038;-82
2024/02/23 03:59:20;;;;;;;2.90;0.50;;;;;;;;;;6181272;28;20054;-81
2024/02/23 04:02:22;;;;;;;0.70;0.30;;;;;;;;;;6156383;28;20193;-82
2024/02/23 04:05:23;;;;;;;2.00;0.40;;;;;;;;;;6158218;28;20043;-79
2024/02/23 04:08:25;;;;;;;0.70;0.52;;;;;;;;;;6185995;28;20042;-80
2024/02/23 04:11:27;;;;;;;0.70;0.40;;;;;;;;;;6177581;28;20043;-81
2024/02/23 04:14:29;;;;;;;1.48;0.32;;;;;;;;;;6185262;28;20068;-82
2024/02/23 04:17:30;;;;;;;1.02;0.40;;;;;;;;;;6175141;28;20082;-80
2024/02/23 04:20:32;;;;;;;1.92;0.45;;;;;;;;;;6179361;28;20412;-82
2024/02/23 04:23:34;;;;;;;0.95;0.40;;;;;;;;;;6163174;28;20054;-79
2024/02/23 04:26:36;;;;;;;2.35;0.50;;;;;;;;;;6179321;28;20081;-80
2024/02/23 04:29:38;;;;;;;0.68;0.40;;;;;;;;;;6181491;28;20062;-81
2024/02/23 04:32:40;;;;;;;1.77;0.60;;;;;;;;;;6182784;28;20165;-81
2024/02/23 04:35:41;;;;;;;1.45;0.68;;;;;;;;;;6180531;28;20054;-82
2024/02/23 04:38:43;;;;;;;0.98;0.63;;;;;;;;;;6179108;28;20055;-80
2024/02/23 04:41:45;;;;;;;1.38;0.80;;;;;;;;;;6180348;28;20078;-79
2024/02/23 04:44:46;;;;;;;2.60;0.60;;;;;;;;;;6167583;28;20885;-81
2024/02/23 04:47:48;;;;;;;1.52;0.45;;;;;;;;;;6177745;28;20062;-80
2024/02/23 04:50:50;;;;;;;2.35;0.50;;;;;;;;;;6177245;28;20046;-80
2024/02/23 04:53:52;;;;;;;1.50;0.40;;;;;;;;;;6177303;28;20045;-80
2024/02/23 04:56:53;;;;;;;3.75;0.38;;;;;;;;;;6175835;28;20078;-81
2024/02/23 04:59:55;;;;;;;0.70;0.45;;;;;;;;;;6185633;28;20140;-81
2024/02/23 05:02:56;;;;;;;1.55;0.45;;;;;;;;;;6183907;28;20528;-79
2024/02/23 05:05:58;;;;;;;1.70;0.35;;;;;;;;;;6182007;28;20050;-81
2024/02/23 05:09:01;;;;;;;3.58;0.73;;;;;;;;;;6167161;28;20508;-79
2024/02/23 05:12:03;;;;;;;0.97;0.30;;;;;;;;;;6182052;28;20061;-79
2024/02/23 05:15:05;;;;;;;1.50;0.40;;;;;;;;;;6181877;28;20054;-81
2024/02/23 05:18:07;;;;;;;2.88;0.50;;;;;;;;;;6182565;28;20054;-81
2024/02/23 05:21:09;;;;;;;1.67;0.32;;;;;;;;;;6175073;28;20504;-80
2024/02/23 05:24:11;;;;;;;1.25;0.40;;;;;;;;;;6192549;28;20505;-80
2024/02/23 05:27:13;;;;;;;1.75;0.47;;;;;;;;;;6174390;28;20611;-81
2024/02/23 05:30:14;;;;;;;4.32;0.82;;;;;;;;;;6185409;28;20042;-81
2024/02/23 05:33:16;;;;;;;1.42;0.38;;;;;;;;;;6189991;28;20046;-81
2024/02/23 05:36:18;;;;;;;1.25;0.38;;;;;;;;;;6189059;28;20412;-81
2024/02/23 05:39:20;;;;;;;2.15;0.40;;;;;;;;;;6188859;28;20046;-81
2024/02/23 05:42:21;;;;;;;1.35;0.40;;;;;;;;;;6183413;28;20042;-80
2024/02/23 05:45:23;;;;;;;3.30;0.50;;;;;;;;;;6183466;28;20049;-81
2024/02/23 05:48:25;;;;;;;3.50;0.68;;;;;;;;;;6187422;28;20062;-81
2024/02/23 05:51:29;;;;;;;0.95;0.50;;;;;;;;;;6198293;28;20369;-78
2024/02/23 05:54:30;;;;;;;4.70;0.63;;;;;;;;;;6197598;28;20054;-81
2024/02/23 05:57:32;;;;;;;0.85;0.40;;;;;;;;;;6188842;28;20053;-80
2024/02/23 06:00:34;;;;;;;2.42;0.60;;;;;;;;;;6197193;28;20050;-82
2024/02/23 06:03:35;;;;;;;1.10;0.45;;;;;;;;;;6206158;28;20490;-82
2024/02/23 06:06:40;;;;;;;1.75;0.40;;;;;;;;;;6193335;28;20076;-81
2024/02/23 06:09:43;;;;;;;5.22;0.60;;;;;;;;;;6187012;28;20047;-81
2024/02/23 06:12:44;;;;;;;3.73;1.10;;;;;;;;;;6191980;28;20053;-81
2024/02/23 06:15:46;;;;;;;1.75;0.75;;;;;;;;;;6196464;28;20043;-82
2024/02/23 06:18:48;;;;;;;4.72;0.88;;;;;;;;;;6192125;28;20058;-82
2024/02/23 06:21:50;;;;;;;1.92;0.70;;;;;;;;;;6191176;28;20061;-79
2024/02/23 06:24:52;;;;;;;2.10;0.70;;;;;;;;;;6196509;28;20065;-80
2024/02/23 06:27:54;;;;;;;3.30;0.50;;;;;;;;;;6214658;28;20077;-79
2024/02/23 06:30:55;;;;;;;3.10;1.00;;;;;;;;;;6200141;28;20061;-80
2024/02/23 06:33:57;;;;;;;3.80;0.50;;;;;;;;;;6196953;28;20058;-78
2024/02/23 06:36:59;;;;;;;4.82;0.70;;;;;;;;;;6209609;28;20053;-79
2024/02/23 06:40:01;;;;;;;2.10;1.00;;;;;;;;;;6214751;28;20054;-79
2024/02/23 06:43:03;;;;;;;1.58;1.25;;;;;;;;;;6199106;28;20073;-79
2024/02/23 06:46:09;;;;;;;2.53;1.17;;;;;;;;;;6207811;28;20057;-79
2024/02/23 06:49:10;;;;;;;2.65;0.88;;;;;;;;;;6203767;28;20034;-80
2024/02/23 06:52:13;;;;;;;2.05;0.50;;;;;;;;;;6206584;28;20074;-83
2024/02/23 06:55:14;;;;;;;2.42;0.55;;;;;;;;;;6193646;28;20053;-84
2024/02/23 06:58:18;;;;;;;2.20;0.52;;;;;;;;;;6198544;28;20057;-81
2024/02/23 07:01:20;;;;;;;1.90;0.75;;;;;;;;;;6207787;28;20058;-80
2024/02/23 07:04:22;;;;;;;1.48;0.50;;;;;;;;;;6204605;28;20074;-79
2024/02/23 07:07:24;;;;;;;2.38;0.55;;;;;;;;;;6206843;28;20072;-79
2024/02/23 07:10:29;;;;;;;3.15;0.70;;;;;;;;;;6202857;28;20319;-80
2024/02/23 07:13:31;;;;;;;3.55;0.60;;;;;;;;;;6197636;28;20050;-80
2024/02/23 07:16:32;;;;;;;4.25;0.80;;;;;;;;;;6220364;28;20034;-80
2024/02/23 07:19:34;;;;;;;1.27;0.60;;;;;;;;;;6208328;28;20064;-79
2024/02/23 07:22:36;;;;;;;3.05;0.70;;;;;;;;;;6214587;28;20106;-79
2024/02/23 07:25:38;;;;;;;3.57;0.87;;;;;;;;;;6199337;28;20042;-80
2024/02/23 07:28:40;;;;;;;3.92;0.85;;;;;;;;;;6193355;28;20057;-79
2024/02/23 07:31:42;;;;;;;1.23;0.70;;;;;;;;;;6182647;28;20053;-81
2024/02/23 07:34:43;;;;;;;2.83;0.95;;;;;;;;;;6186437;28;20034;-82
2024/02/23 07:37:46;;;;;;;2.65;0.68;;;;;;;;;;6163633;28;20097;-81
2024/02/23 07:40:48;;;;;;;3.15;0.50;;;;;;;;;;6181028;28;20055;-82
2024/02/23 07:43:49;;;;;;;2.22;0.80;;;;;;;;;;6177499;28;20053;-80
2024/02/23 07:46:54;;;;;;;1.92;0.77;;;;;;;;;;6184630;28;20042;-81
2024/02/23 07:49:55;;;;;;;2.50;0.57;;;;;;;;;;6183571;28;20054;-82
2024/02/23 07:52:57;;;;;;;6.25;0.80;;;;;;;;;;6161932;28;20143;-82
2024/02/23 07:56:02;;;;;;;2.90;0.50;;;;;;;;;;6178966;28;20043;-81
2024/02/23 07:59:04;;;;;;;1.00;0.60;;;;;;;;;;6196804;28;20047;-81
2024/02/23 08:02:05;;;;;;;5.70;0.63;;;;;;;;;;6193184;28;20472;-82
2024/02/23 08:05:07;;;;;;;2.10;0.95;;;;;;;;;;6189420;28;20046;-82
2024/02/23 08:08:09;;;;;;;6.45;1.08;;;;;;;;;;6184766;28;20430;-83
2024/02/23 08:11:11;;;;;;;3.67;0.63;;;;;;;;;;6175350;28;20506;-83
2024/02/23 08:14:13;;;;;;;2.40;0.65;;;;;;;;;;6173244;28;20046;-83
2024/02/23 08:17:15;;;;;;;2.17;0.60;;;;;;;;;;6180686;28;20058;-82
2024/02/23 08:20:16;;;;;;;4.90;0.73;;;;;;;;;;6147389;28;20051;-82
2024/02/23 08:23:22;;;;;;;5.68;0.88;;;;;;;;;;6177802;28;20120;-82
2024/02/23 08:26:24;;;;;;;3.97;1.00;;;;;;;;;;6172430;28;20137;-83
2024/02/23 08:29:26;;;;;;;1.15;0.52;;;;;;;;;;6177680;28;20057;-83
2024/02/23 08:32:28;;;;;;;2.00;0.50;;;;;;;;;;6166957;28;20053;-83
2024/02/23 08:35:30;;;;;;;5.93;1.25;;;;;;;;;;6167447;28;20050;-84
2024/02/23 08:38:32;;;;;;;3.03;0.93;;;;;;;;;;6181198;28;20408;-83
2024/02/23 08:41:34;;;;;;;3.85;1.00;;;;;;;;;;6179196;28;20420;-83
2024/02/23 08:44:39;;;;;;;3.88;1.20;;;;;;;;;;6191742;28;20069;-83
2024/02/23 08:47:41;;;;;;;8.50;3.67;;;;;;;;;;6183212;28;20050;-84
2024/02/23 08:50:43;;;;;;;4.13;1.20;;;;;;;;;;6180316;28;20030;-83
2024/02/23 08:53:45;;;;;;;5.05;1.10;;;;;;;;;;6175070;28;20046;-83
2024/02/23 08:56:46;;;;;;;2.53;0.60;;;;;;;;;;6166968;28;20038;-83
2024/02/23 08:59:49;;;;;;;2.35;0.70;;;;;;;;;;6184255;28;20043;-81
2024/02/23 09:02:51;;;;;;;2.42;1.10;;;;;;;;;;6180225;28;20521;-83
2024/02/23 09:05:52;;;;;;;3.65;1.33;;;;;;;;;;6179805;28;20054;-82
2024/02/23 09:08:54;;;;;;;3.60;0.95;;;;;;;;;;6195294;28;20050;-81
2024/02/23 09:11:56;;;;;;;4.20;1.40;;;;;;;;;;6158237;28;20101;-84
2024/02/23 09:14:57;;;;;;;5.82;0.90;;;;;;;;;;6186323;28;20046;-83
2024/02/23 09:17:59;;;;;;;3.78;1.10;;;;;;;;;;6186935;28;20042;-83
2024/02/23 09:21:01;;;;;;;3.78;0.93;;;;;;;;;;6180226;28;20058;-81
2024/02/23 09:24:04;;;;;;;5.38;0.98;;;;;;;;;;6176451;28;20042;-82
2024/02/23 09:27:05;;;;;;;3.40;1.13;;;;;;;;;;6195437;28;20070;-82
2024/02/23 09:30:08;;;;;;;2.45;1.10;;;;;;;;;;6168774;28;20059;-82
2024/02/23 09:33:09;;;;;;;1.95;1.00;;;;;;;;;;6184625;28;20531;-83
2024/02/23 09:36:11;;;;;;;3.50;1.23;;;;;;;;;;6180182;28;20121;-84
2024/02/23 09:39:13;;;;;;;2.38;0.80;;;;;;;;;;6180742;28;20069;-85
2024/02/23 09:42:15;;;;;;;2.88;1.38;;;;;;;;;;6177326;28;20058;-84
2024/02/23 09:45:17;;;;;;;4.55;1.20;;;;;;;;;;6180475;28;20157;-83
2024/02/23 09:48:20;;;;;;;2.45;1.15;;;;;;;;;;6181892;28;20821;-81
2024/02/23 09:51:23;;;;;;;4.40;1.15;;;;;;;;;;6174690;28;20046;-83
2024/02/23 09:54:25;;;;;;;2.50;1.05;;;;;;;;;;6173421;28;20533;-84
2024/02/23 09:57:27;;;;;;;2.08;0.70;;;;;;;;;;6191511;28;20074;-83
2024/02/23 10:00:29;;;;;;;4.13;0.98;;;;;;;;;;6187583;28;20053;-84
2024/02/23 10:03:31;;;;;;;4.13;1.00;;;;;;;;;;6191232;28;20114;-82
2024/02/23 10:06:33;;;;;;;0.90;0.77;;;;;;;;;;6183919;28;20050;-81
2024/02/23 10:09:36;;;;;;;5.50;1.13;;;;;;;;;;6203400;28;20509;-83
2024/02/23 10:12:37;;;;;;;7.70;1.20;;;;;;;;;;6186879;28;20046;-83
2024/02/23 10:15:39;;;;;;;3.17;0.90;;;;;;;;;;6185081;28;20100;-83
2024/02/23 10:19:00;;;;;;;3.67;0.80;;;;;;;;;;6185304;28;20054;-82
2024/02/23 10:22:01;;;;;;;3.47;1.10;;;;;;;;;;6182060;28;20077;-84
2024/02/23 10:25:04;;;;;;;3.88;1.02;;;;;;;;;;6185679;28;20080;-84
2024/02/23 10:28:06;;;;;;;3.70;1.00;;;;;;;;;;6182700;28;20054;-81
2024/02/23 10:31:08;;;;;;;3.05;1.00;;;;;;;;;;6187809;28;20046;-81
2024/02/23 10:34:14;;;;;;;1.23;0.95;;;;;;;;;;6188772;28;20535;-83
2024/02/23 10:37:16;;;;;;;2.78;1.00;;;;;;;;;;6182805;28;20066;-85
2024/02/23 10:40:20;;;;;;;5.10;1.02;;;;;;;;;;6198430;28;20079;-83
2024/02/23 10:43:35;;;;;;;2.67;1.05;;;;;;;;;;6188012;28;20051;-81
2024/02/23 10:46:37;;;;;;;3.20;0.90;;;;;;;;;;6180941;28;20073;-81
2024/02/23 10:49:40;;;;;;;9.23;1.40;;;;;;;;;;6186454;28;20053;-82
2024/02/23 10:52:42;;;;;;;3.47;1.10;;;;;;;;;;6175014;28;20065;-82
2024/02/23 10:55:45;;;;;;;2.35;1.30;;;;;;;;;;6194068;28;20074;-82
2024/02/23 10:58:47;;;;;;;4.70;1.05;;;;;;;;;;6182954;28;20061;-82
2024/02/23 11:01:51;;;;;;;6.22;0.98;;;;;;;;;;6184559;28;20101;-83
2024/02/23 11:04:54;;;;;;;3.78;1.48;;;;;;;;;;6174248;28;20046;-83
2024/02/23 11:07:56;;;;;;;3.53;1.08;;;;;;;;;;6199168;28;20050;-84
2024/02/23 11:11:09;;;;;;;4.43;0.90;;;;;;;;;;6174825;28;20089;-82
2024/02/23 11:14:11;;;;;;;1.00;0.60;;;;;;;;;;6186047;28;20137;-83
2024/02/23 11:17:20;;;;;;;1.17;1.00;;;;;;;;;;6172575;28;20127;-82
2024/02/23 11:20:26;;;;;;;2.13;1.00;;;;;;;;;;6194844;28;20046;-83
2024/02/23 11:23:45;;;;;;;3.20;1.17;;;;;;;;;;6184546;28;20050;-82
2024/02/23 11:26:48;;;;;;;3.53;0.68;;;;;;;;;;6189842;28;20057;-82
2024/02/23 11:30:00;;;;;;;2.35;1.27;;;;;;;;;;6188179;28;20053;-82
2024/02/23 11:33:02;;;;;;;1.87;0.77;;;;;;;;;;6186871;28;20442;-85
2024/02/23 11:36:08;;;;;;;1.13;0.57;;;;;;;;;;6192226;28;20057;-83
2024/02/23 11:39:13;;;;;;;4.05;0.85;;;;;;;;;;6183092;28;20057;-84
2024/02/23 11:42:14;;;;;;;4.63;1.08;;;;;;;;;;6180322;28;20043;-82
2024/02/23 11:45:16;;;;;;;4.82;0.80;;;;;;;;;;6160138;28;20051;-85
2024/02/23 11:48:19;;;;;;;1.70;0.60;;;;;;;;;;6185057;28;20043;-84
2024/02/23 11:51:27;;;;;;;5.43;0.90;;;;;;;;;;6194904;28;20874;-82
2024/02/23 11:54:30;;;;;;;1.42;0.85;;;;;;;;;;6177691;28;20058;-83
2024/02/23 11:57:35;;;;;;;1.75;0.70;;;;;;;;;;6179424;28;20125;-83
2024/02/23 12:00:48;;;;;;;4.80;2.13;;;;;;;;;;6198337;28;20042;-83
2024/02/23 12:03:50;;;;;;;3.70;0.80;;;;;;;;;;6187572;28;20208;-82
2024/02/23 12:06:52;;;;;;;4.07;1.23;;;;;;;;;;6169495;28;20058;-81
2024/02/23 12:09:53;;;;;;;3.42;1.55;;;;;;;;;;6176942;28;20045;-82
2024/02/23 12:12:55;;;;;;;51.50;20.65;;;;;;;;;;6205835;28;20138;-83
2024/02/23 12:15:57;;;;;;;3.00;1.75;;;;;;;;;;6185049;28;20058;-82
2024/02/23 12:19:01;;;;;;;12.10;4.68;;;;;;;;;;6186921;28;20512;-82
2024/02/23 12:22:04;;;;;;;3.40;0.90;;;;;;;;;;6177933;28;20058;-82
2024/02/23 12:25:06;;;;;;;2.40;1.17;;;;;;;;;;6182275;28;20420;-83
2024/02/23 12:28:08;;;;;;;2.38;1.55;;;;;;;;;;6171062;28;20112;-83
2024/02/23 12:31:10;;;;;;;2.47;0.70;;;;;;;;;;6200504;28;20497;-83
2024/02/23 12:34:13;;;;;;;2.35;0.88;;;;;;;;;;6188176;28;20042;-82
2024/02/23 12:37:16;;;;;;;3.65;1.20;;;;;;;;;;6200995;28;20468;-83
2024/02/23 12:40:18;;;;;;;3.47;0.85;;;;;;;;;;6180305;28;20401;-83
2024/02/23 12:43:24;;;;;;;2.88;0.88;;;;;;;;;;6197839;28;20100;-82
2024/02/23 12:46:26;;;;;;;1.45;0.80;;;;;;;;;;6195927;28;20051;-83
2024/02/23 12:49:27;;;;;;;0.90;0.70;;;;;;;;;;6183700;28;20054;-82
2024/02/23 12:52:29;;;;;;;0.88;0.57;;;;;;;;;;6177635;28;20130;-84
2024/02/23 12:55:31;;;;;;;2.38;0.63;;;;;;;;;;6189657;28;20043;-84
2024/02/23 12:58:32;;;;;;;1.38;0.63;;;;;;;;;;6182741;28;20540;-81
2024/02/23 13:01:37;;;;;;;6.88;0.80;;;;;;;;;;6186479;28;20050;-83
2024/02/23 13:04:46;;;;;;;1.45;0.60;;;;;;;;;;6182932;28;20050;-83
2024/02/23 13:07:47;;;;;;;2.20;0.85;;;;;;;;;;6174558;28;20042;-81
2024/02/23 13:10:50;;;;;;;5.80;0.90;;;;;;;;;;6191680;28;20046;-82
2024/02/23 13:13:52;;;;;;;3.40;0.70;;;;;;;;;;6185677;28;20066;-84
2024/02/23 13:16:53;;;;;;;2.45;0.52;;;;;;;;;;6194919;28;20046;-82
2024/02/23 13:19:55;;;;;;;1.88;0.52;;;;;;;;;;6185915;28;20133;-84
2024/02/23 13:23:12;;;;;;;1.05;0.60;;;;;;;;;;6175236;28;20891;-84
2024/02/23 13:26:14;;;;;;;1.40;0.50;;;;;;;;;;6165148;28;20042;-84
2024/02/23 13:29:16;;;;;;;1.08;0.50;;;;;;;;;;6184719;28;20045;-82
2024/02/23 13:32:18;;;;;;;2.65;0.80;;;;;;;;;;6186821;28;20110;-83
2024/02/23 13:35:20;;;;;;;1.48;0.50;;;;;;;;;;6184742;28;20448;-84
2024/02/23 13:38:22;;;;;;;1.50;1.13;;;;;;;;;;6180296;28;20057;-83
2024/02/23 13:41:24;;;;;;;1.58;0.75;;;;;;;;;;6177345;28;20043;-83
2024/02/23 13:44:25;;;;;;;1.23;0.70;;;;;;;;;;6187038;28;20072;-83
2024/02/23 13:47:27;;;;;;;2.13;1.10;;;;;;;;;;6194665;28;20073;-82
2024/02/23 13:50:29;;;;;;;2.90;0.60;;;;;;;;;;6185547;28;20050;-83
2024/02/23 13:53:32;;;;;;;1.17;0.77;;;;;;;;;;6182028;28;20046;-83
2024/02/23 13:56:34;;;;;;;2.15;0.75;;;;;;;;;;6182745;28;20133;-82
2024/02/23 13:59:36;;;;;;;0.98;0.73;;;;;;;;;;6205379;28;20042;-84
2024/02/23 14:02:40;;;;;;;1.83;0.63;;;;;;;;;;6207154;28;20107;-83
2024/02/23 14:05:44;;;;;;;2.13;0.80;;;;;;;;;;6198151;28;20046;-82
2024/02/23 14:08:47;;;;;;;1.52;0.80;;;;;;;;;;6194337;28;20042;-79
2024/02/23 14:11:49;;;;;;;;;;;;;;;;;;6185248;28;20046;-81
2024/02/23 14:14:51;;;;;;;2.00;1.15;;;;;;;;;;6195270;28;19925;-84
2024/02/23 14:17:53;;;;;;;2.67;1.40;;;;;;;;;;6208980;28;20038;-84
2024/02/23 14:20:55;;;;;;;4.25;1.38;;;;;;;;;;6207352;28;20166;-84
2024/02/23 14:24:02;;;;;;;3.70;2.75;;;;;;;;;;6198515;28;20046;-84
2024/02/23 14:27:04;;;;;;;2.95;1.10;;;;;;;;;;6199502;28;20042;-84
2024/02/23 14:30:08;;;;;;;;;;;;;;;;;;6173295;28;20058;-83
2024/02/23 14:33:09;;;;;;;4.57;1.33;;;;;;;;;;6201660;28;20414;-82
2024/02/23 14:36:11;;;;;;;1.42;0.60;;;;;;;;;;6190935;28;20042;-84
2024/02/23 14:39:13;;;;;;;2.03;0.70;;;;;;;;;;6199335;28;20096;-83
2024/02/23 14:42:14;;;;;;;2.85;0.85;;;;;;;;;;6169174;28;20061;-83
2024/02/23 14:45:16;;;;;;;1.20;0.47;;;;;;;;;;6202619;28;20042;-84
2024/02/23 14:48:22;;;;;;;2.10;0.90;;;;;;;;;;6185922;28;20050;-83
2024/02/23 14:51:24;;;;;;;2.75;0.70;;;;;;;;;;6181491;28;20501;-83
2024/02/23 14:54:25;;;;;;;1.08;0.70;;;;;;;;;;6179157;28;20050;-84
2024/02/23 14:57:27;;;;;;;1.77;0.70;;;;;;;;;;6180258;28;20047;-82
2024/02/23 15:00:29;;;;;;;7.18;0.73;;;;;;;;;;6182294;28;20090;-82
2024/02/23 15:03:32;;;;;;;5.00;1.02;;;;;;;;;;6182119;28;20046;-83
2024/02/23 15:06:34;;;;;;;1.05;0.55;;;;;;;;;;6177303;28;20039;-81
2024/02/23 15:09:36;;;;;;;3.10;0.90;;;;;;;;;;6191197;28;20050;-82
2024/02/23 15:12:41;;;;;;;3.92;1.77;;;;;;;;;;6181627;28;20111;-83
2024/02/23 15:15:43;;;;;;;9.25;3.45;;;;;;;;;;6182031;28;20069;-81
2024/02/23 15:18:44;;;;;;;2.95;1.10;;;;;;;;;;6184610;28;20047;-81
2024/02/23 15:21:47;;;;;;;1.52;0.70;;;;;;;;;;6180588;28;20043;-83
2024/02/23 15:24:49;;;;;;;2.17;0.75;;;;;;;;;;6151679;28;20043;-83
2024/02/23 15:27:53;;;;;;;1.52;0.57;;;;;;;;;;6164801;28;20045;-84
2024/02/23 15:30:55;;;;;;;3.15;0.82;;;;;;;;;;6184574;28;20058;-80
2024/02/23 15:33:58;;;;;;;4.68;1.15;;;;;;;;;;6188595;28;20106;-82
2024/02/23 15:37:00;;;;;;;1.02;0.63;;;;;;;;;;6170076;28;20062;-82
2024/02/23 15:40:03;;;;;;;2.85;1.08;;;;;;;;;;6173682;28;20077;-81
2024/02/23 15:43:05;;;;;;;1.75;0.85;;;;;;;;;;6183798;28;20061;-82
2024/02/23 15:46:07;;;;;;;1.10;0.60;;;;;;;;;;6185997;28;20566;-83
2024/02/23 15:49:08;;;;;;;3.22;1.08;;;;;;;;;;6184828;28;20058;-84
2024/02/23 15:52:30;;;;;;;3.95;0.70;;;;;;;;;;6175778;28;23182;-83
2024/02/23 15:55:33;;;;;;;4.83;1.27;;;;;;;;;;6174970;28;20053;-81
2024/02/23 15:58:34;;;;;;;1.42;0.55;;;;;;;;;;6179315;28;20062;-82
2024/02/23 16:01:37;;;;;;;2.15;0.73;;;;;;;;;;6182952;28;20073;-82
2024/02/23 16:04:38;;;;;;;1.98;0.90;;;;;;;;;;6182661;28;20398;-81
2024/02/23 16:07:40;;;;;;;4.22;0.90;;;;;;;;;;6182053;28;20062;-82
2024/02/23 16:10:42;;;;;;;7.03;1.60;;;;;;;;;;6180310;28;20628;-82
2024/02/23 16:13:44;;;;;;;5.78;1.88;;;;;;;;;;6186058;28;20045;-82
2024/02/23 16:16:47;;;;;;;3.63;1.10;;;;;;;;;;6170033;28;20042;-84
2024/02/23 16:19:49;;;;;;;2.65;1.02;;;;;;;;;;6179581;28;20497;-81
2024/02/23 16:22:52;;;;;;;2.33;0.90;;;;;;;;;;6154783;28;20115;-80
2024/02/23 16:25:55;;;;;;;3.45;0.70;;;;;;;;;;6179190;28;20078;-81
2024/02/23 16:28:57;;;;;;;3.08;1.45;;;;;;;;;;6199325;28;20149;-82
2024/02/23 16:31:59;;;;;;;2.38;1.40;;;;;;;;;;6187054;28;20052;-81
2024/02/23 16:35:01;;;;;;;3.42;1.60;;;;;;;;;;6184682;28;20061;-83
2024/02/23 16:38:03;;;;;;;10.73;4.00;;;;;;;;;;6186628;28;20046;-82
2024/02/23 16:41:05;;;;;;;9.02;3.00;;;;;;;;;;6176505;28;20061;-83
2024/02/23 16:44:09;;;;;;;6.97;2.40;;;;;;;;;;6178955;28;20050;-83
2024/02/23 16:47:11;;;;;;;4.28;2.00;;;;;;;;;;6179423;28;20046;-83
2024/02/23 16:50:13;;;;;;;5.53;2.38;;;;;;;;;;6148180;28;20137;-83
2024/02/23 16:53:15;;;;;;;4.15;1.45;;;;;;;;;;6147224;28;20058;-83
2024/02/23 16:56:16;;;;;;;1.88;1.00;;;;;;;;;;6166995;28;20325;-84
2024/02/23 16:59:18;;;;;;;2.75;1.38;;;;;;;;;;6194259;28;20046;-83
2024/02/23 17:02:20;;;;;;;3.17;1.42;;;;;;;;;;6169395;28;20050;-81
2024/02/23 17:05:22;;;;;;;5.68;1.48;;;;;;;;;;6173692;28;20062;-80
2024/02/23 17:08:24;;;;;;;4.72;2.22;;;;;;;;;;6173865;28;20137;-82
2024/02/23 17:11:25;;;;;;;3.42;1.70;;;;;;;;;;6190663;28;21933;-80
2024/02/23 17:14:28;;;;;;;6.50;1.77;;;;;;;;;;6162738;28;20061;-81
2024/02/23 17:17:29;;;;;;;5.13;1.60;;;;;;;;;;6182413;28;20427;-80
2024/02/23 17:20:31;;;;;;;5.80;1.15;;;;;;;;;;6182113;28;20048;-79
2024/02/23 17:23:33;;;;;;;7.70;3.45;;;;;;;;;;6176275;28;20669;-79
2024/02/23 17:26:35;;;;;;;31.08;13.73;;;;;;;;;;6180457;28;20066;-80
2024/02/23 17:29:37;;;;;;;55.75;20.30;;;;;;;;;;6183719;28;20039;-81
2024/02/23 17:32:38;;;;;;;10.75;5.97;;;;;;;;;;6180123;28;20055;-81
2024/02/23 17:35:40;;;;;;;13.02;6.72;;;;;;;;;;6180286;28;20046;-79
2024/02/23 17:38:42;;;;;;;12.75;6.10;;;;;;;;;;6180482;28;20560;-79
2024/02/23 17:41:44;;;;;;;13.38;6.75;;;;;;;;;;6179997;28;20058;-82
2024/02/23 17:44:45;;;;;;;27.33;10.38;;;;;;;;;;6182060;28;20051;-81
2024/02/23 17:47:47;;;;;;;28.50;11.90;;;;;;;;;;6175654;28;20055;-81
2024/02/23 17:50:49;;;;;;;17.35;10.07;;;;;;;;;;6175276;28;20053;-83
2024/02/23 17:53:52;;;;;;;29.10;9.60;;;;;;;;;;6179115;28;20051;-82
2024/02/23 17:56:54;;;;;;;56.57;21.17;;;;;;;;;;6172895;28;20057;-82
2024/02/23 17:59:56;;;;;;;25.88;9.85;;;;;;;;;;6194239;28;20055;-82
2024/02/23 18:03:00;;;;;;;20.23;8.38;;;;;;;;;;6181748;28;20140;-78
2024/02/23 18:06:02;;;;;;;21.17;10.45;;;;;;;;;;6176130;28;20420;-79
2024/02/23 18:09:03;;;;;;;22.15;12.93;;;;;;;;;;6162906;28;20050;-79
2024/02/23 18:12:06;;;;;;;16.48;10.95;;;;;;;;;;6174948;28;20042;-78
2024/02/23 18:15:08;;;;;;;18.10;8.70;;;;;;;;;;6184515;28;20053;-80